Time;durP1;ratioP1;P1;durP2;ratioP2;P2;SDS_P1;SDS_P2;PMS_P1;PMS_P2;Temp;Humidity;BMP_temperature;BMP_pressure;BME280_temperature;BME280_humidity;BME280_pressure;Samples;Min_cycle;Max_cycle;Signal;HPM_P1;HPM_P2
2021/04/22 00:00:42;;;;;;;14.27;7.47;;;;;;;9.46;76.05;96612.31;4937510;28;20987;-71
2021/04/22 00:03:10;;;;;;;16.00;9.03;;;;;;;9.55;76.53;96611.78;4941649;28;20466;-70
2021/04/22 00:05:40;;;;;;;20.47;9.47;;;;;;;9.64;77.23;96608.66;4923578;28;20479;-71
2021/04/22 00:08:09;;;;;;;13.93;9.10;;;;;;;9.72;78.12;96609.03;4947412;28;21132;-68
2021/04/22 00:10:39;;;;;;;16.87;10.40;;;;;;;9.82;78.93;96604.97;4947761;28;20438;-70
2021/04/22 00:13:07;;;;;;;26.13;11.60;;;;;;;9.92;79.75;96597.47;4945919;28;20983;-72
2021/04/22 00:15:34;;;;;;;23.93;14.13;;;;;;;10.04;80.15;96599.38;4943735;28;21093;-74
2021/04/22 00:18:26;;;;;;;35.37;19.17;;;;;;;10.18;82.29;96581.19;4935934;28;20848;-70
2021/04/22 00:20:53;;;;;;;33.63;19.83;;;;;;;10.25;84.24;96572.09;4923475;29;20862;-70
2021/04/22 00:23:20;;;;;;;32.93;19.83;;;;;;;10.28;85.06;96562.31;4924390;28;20498;-71
2021/04/22 00:25:47;;;;;;;35.43;21.47;;;;;;;10.41;85.64;96552.00;4942759;28;20465;-71
2021/04/22 00:28:15;;;;;;;44.10;22.43;;;;;;;10.43;86.60;96550.97;4946023;28;20450;-70
2021/04/22 00:30:44;;;;;;;51.73;23.40;;;;;;;10.41;87.42;96557.19;4942396;28;20442;-70
2021/04/22 00:33:13;;;;;;;37.83;22.50;;;;;;;10.42;87.13;96553.66;4950651;28;20907;-71
2021/04/22 00:35:41;;;;;;;43.10;24.93;;;;;;;10.44;87.44;96550.03;4948197;28;20809;-70
2021/04/22 00:38:09;;;;;;;39.93;24.50;;;;;;;10.48;87.99;96554.09;4944028;28;20769;-72
2021/04/22 00:40:38;;;;;;;40.87;24.00;;;;;;;10.53;88.81;96565.06;4936788;28;20910;-70
2021/04/22 00:43:06;;;;;;;36.60;23.50;;;;;;;10.55;88.80;96571.00;4940360;28;20806;-70
2021/04/22 00:45:34;;;;;;;41.67;24.73;;;;;;;10.50;88.90;96575.69;4937131;28;20933;-70
2021/04/22 00:48:01;;;;;;;41.27;24.20;;;;;;;10.46;88.41;96574.19;4948208;28;20434;-70
2021/04/22 00:50:30;;;;;;;43.43;23.77;;;;;;;10.40;88.10;96571.16;4943061;28;20549;-70
2021/04/22 00:52:59;;;;;;;37.47;21.40;;;;;;;10.18;89.13;96574.19;4921171;28;20817;-71
2021/04/22 00:55:28;;;;;;;45.53;24.60;;;;;;;10.16;89.70;96563.06;4935762;28;20470;-71
2021/04/22 00:57:55;;;;;;;44.20;23.90;;;;;;;10.18;90.10;96569.00;4937649;28;20789;-73
2021/04/22 01:00:25;;;;;;;35.90;22.37;;;;;;;10.11;89.54;96559.09;4943411;28;20467;-71
2021/04/22 01:02:52;;;;;;;43.53;23.70;;;;;;;10.24;89.37;96576.44;4937271;28;20916;-71
2021/04/22 01:05:21;;;;;;;36.67;22.20;;;;;;;10.27;89.14;96575.41;4942752;28;20847;-69
2021/04/22 01:07:48;;;;;;;39.40;23.70;;;;;;;10.32;89.00;96584.59;4942908;28;20447;-70
2021/04/22 01:10:18;;;;;;;41.40;23.90;;;;;;;10.26;89.27;96584.97;4942233;28;20846;-72
2021/04/22 01:12:46;;;;;;;40.10;22.73;;;;;;;10.20;89.69;96580.16;4949520;28;20438;-70
2021/04/22 01:15:16;;;;;;;44.03;23.73;;;;;;;10.08;89.97;96580.91;4936719;28;20761;-70
2021/04/22 01:17:44;;;;;;;41.30;24.20;;;;;;;9.95;90.39;96590.31;4948999;28;20470;-71
2021/04/22 01:20:14;;;;;;;39.13;24.50;;;;;;;9.78;90.67;96593.09;4931605;28;20482;-71
2021/04/22 01:22:43;;;;;;;37.73;21.70;;;;;;;9.70;91.09;96595.31;4940421;28;20485;-71
2021/04/22 01:25:13;;;;;;;38.40;23.00;;;;;;;9.74;91.05;96607.19;4945549;28;20462;-71
2021/04/22 01:27:40;;;;;;;42.90;22.60;;;;;;;9.71;90.92;96598.72;4941379;28;20505;-73
2021/04/22 01:30:10;;;;;;;41.13;21.33;;;;;;;9.57;90.85;96593.50;4939013;28;20992;-71
2021/04/22 01:32:38;;;;;;;41.90;23.37;;;;;;;9.83;90.83;96614.47;4940793;28;20520;-73
2021/04/22 01:35:06;;;;;;;40.97;23.90;;;;;;;9.78;91.19;96608.69;4944226;28;20947;-72
2021/04/22 01:37:34;;;;;;;44.43;24.03;;;;;;;9.74;90.78;96601.97;4941189;28;20513;-71
2021/04/22 01:40:02;;;;;;;37.10;21.07;;;;;;;9.72;90.95;96611.66;4948454;28;20830;-73
2021/04/22 01:42:29;;;;;;;41.03;22.30;;;;;;;9.69;90.87;96609.25;4948033;28;20450;-72
2021/04/22 01:44:56;;;;;;;37.10;21.13;;;;;;;9.66;90.76;96606.78;4948141;28;20462;-72
2021/04/22 01:47:23;;;;;;;39.07;21.17;;;;;;;9.66;90.77;96606.78;4950515;28;20468;-72
2021/04/22 01:49:50;;;;;;;34.50;20.37;;;;;;;9.73;90.75;96595.13;4946618;28;20481;-74
2021/04/22 01:52:17;;;;;;;35.03;19.60;;;;;;;9.80;90.53;96604.22;4946663;28;20948;-73
2021/04/22 01:54:44;;;;;;;33.80;20.80;;;;;;;9.90;90.21;96596.72;4943411;28;20999;-72
2021/04/22 01:57:12;;;;;;;36.93;21.60;;;;;;;9.88;89.90;96594.22;4946977;28;21134;-72
2021/04/22 01:59:39;;;;;;;30.53;19.73;;;;;;;9.90;89.69;96605.38;4947828;28;20957;-73
2021/04/22 02:02:06;;;;;;;31.90;18.10;;;;;;;9.85;89.61;96598.75;4939508;28;20474;-73
2021/04/22 02:04:33;;;;;;;38.47;20.97;;;;;;;9.79;90.26;96614.72;4940869;28;20956;-69
2021/04/22 02:07:00;;;;;;;36.23;19.23;;;;;;;9.79;90.79;96615.56;4950563;28;20968;-71
2021/04/22 02:09:27;;;;;;;32.93;20.30;;;;;;;9.85;90.96;96609.16;4950144;28;20967;-71
2021/04/22 02:11:54;;;;;;;31.30;19.90;;;;;;;9.89;90.86;96611.47;4928420;28;20492;-70
2021/04/22 02:14:22;;;;;;;40.67;22.20;;;;;;;9.90;90.71;96610.59;4941607;28;20465;-71
2021/04/22 02:16:49;;;;;;;36.80;20.97;;;;;;;9.91;90.68;96614.00;4939364;28;20947;-71
2021/04/22 02:19:16;;;;;;;37.03;20.03;;;;;;;9.91;90.30;96614.00;4939447;28;21220;-71
2021/04/22 02:21:43;;;;;;;31.93;19.30;;;;;;;9.85;89.60;96607.41;4948368;28;20451;-75
2021/04/22 02:24:11;;;;;;;33.40;19.30;;;;;;;9.95;89.41;96616.31;4948703;28;20957;-71
2021/04/22 02:26:38;;;;;;;33.30;20.90;;;;;;;9.90;88.68;96626.19;4946193;28;20836;-70
2021/04/22 02:29:05;;;;;;;36.33;20.77;;;;;;;9.96;88.73;96632.78;4951064;28;20470;-70
2021/04/22 02:31:33;;;;;;;38.77;21.57;;;;;;;9.95;88.17;96618.94;4942501;28;20772;-72
2021/04/22 02:34:01;;;;;;;39.87;22.37;;;;;;;9.92;88.21;96624.31;4940962;28;20846;-71
2021/04/22 02:36:28;;;;;;;50.30;24.10;;;;;;;9.78;89.25;96624.28;4932126;28;20455;-70
2021/04/22 02:38:55;;;;;;;40.60;22.83;;;;;;;9.68;88.58;96619.72;4946974;28;20466;-71
2021/04/22 02:41:22;;;;;;;43.40;23.30;;;;;;;9.64;88.51;96624.25;4940166;28;20453;-71
2021/04/22 02:43:49;;;;;;;46.80;24.10;;;;;;;9.48;89.06;96615.66;4948044;28;20469;-71
2021/04/22 02:46:16;;;;;;;35.70;21.87;;;;;;;9.44;90.15;96634.94;4942160;28;20768;-73
2021/04/22 02:48:44;;;;;;;45.80;24.67;;;;;;;9.47;91.07;96634.78;4947943;28;20480;-73
2021/04/22 02:51:11;;;;;;;39.10;23.57;;;;;;;9.51;90.74;96635.44;4942238;28;20537;-71
2021/04/22 02:53:39;;;;;;;46.17;26.27;;;;;;;9.55;90.83;96632.56;4949455;28;21036;-71
2021/04/22 02:56:07;;;;;;;49.07;27.93;;;;;;;9.49;90.43;96640.72;4943383;28;20469;-72
2021/04/22 02:58:34;;;;;;;47.70;27.63;;;;;;;9.54;90.85;96646.50;4941806;28;20888;-71
2021/04/22 03:01:02;;;;;;;54.67;27.57;;;;;;;9.39;91.19;96628.34;4954100;28;20883;-70
2021/04/22 03:03:29;;;;;;;48.77;27.70;;;;;;;9.52;91.96;96637.94;4927236;28;20529;-72
2021/04/22 03:05:57;;;;;;;52.63;30.97;;;;;;;9.50;91.57;96644.97;4921393;28;20848;-71
2021/04/22 03:08:25;;;;;;;51.47;29.10;;;;;;;9.39;92.02;96633.53;4931452;28;20492;-71
2021/04/22 03:10:52;;;;;;;51.00;29.77;;;;;;;9.57;92.17;96646.31;4930379;29;20431;-71
2021/04/22 03:13:19;;;;;;;50.30;29.70;;;;;;;9.69;92.09;96658.63;4928751;28;20462;-72
2021/04/22 03:15:46;;;;;;;45.03;27.27;;;;;;;9.68;91.76;96654.34;4924724;29;20902;-72
2021/04/22 03:18:13;;;;;;;54.20;31.07;;;;;;;9.62;91.42;96653.84;4918249;28;20756;-71
2021/04/22 03:20:41;;;;;;;55.37;28.20;;;;;;;9.67;91.74;96655.25;4923087;29;20514;-71
2021/04/22 03:23:09;;;;;;;62.30;28.50;;;;;;;9.62;91.67;96666.84;4924970;28;20906;-70
2021/04/22 03:25:37;;;;;;;51.20;28.23;;;;;;;9.58;91.56;96655.78;4925134;29;20858;-74
2021/04/22 03:28:04;;;;;;;52.63;28.57;;;;;;;9.36;91.64;96657.91;4929162;28;20467;-71
2021/04/22 03:30:33;;;;;;;53.63;29.37;;;;;;;9.24;92.28;96657.78;4921216;29;20989;-71
2021/04/22 03:33:00;;;;;;;52.23;30.20;;;;;;;9.11;92.53;96669.75;4923582;28;20902;-70
2021/04/22 03:35:27;;;;;;;63.47;28.90;;;;;;;9.10;92.47;96674.13;4928856;28;20984;-71
2021/04/22 03:37:54;;;;;;;50.20;29.30;;;;;;;9.08;92.98;96678.53;4931874;29;20922;-70
2021/04/22 03:40:25;;;;;;;46.00;28.63;;;;;;;9.03;93.34;96672.78;4934319;28;20459;-71
2021/04/22 03:42:52;;;;;;;51.70;29.03;;;;;;;8.90;93.80;96674.38;4935899;29;20626;-71
2021/04/22 03:45:20;;;;;;;54.27;29.60;;;;;;;8.82;93.89;96681.72;4921368;28;20801;-70
2021/04/22 03:47:48;;;;;;;54.97;30.20;;;;;;;8.88;94.17;96678.81;4921405;29;20526;-72
2021/04/22 03:50:17;;;;;;;64.80;30.00;;;;;;;8.98;93.58;96690.34;4919376;28;20486;-71
2021/04/22 03:52:50;;;;;;;51.37;29.00;;;;;;;8.97;93.29;96695.63;4927416;29;20439;-72
2021/04/22 03:55:20;;;;;;;48.73;28.40;;;;;;;8.87;93.54;96690.09;4919965;28;20467;-71
2021/04/22 03:57:48;;;;;;;54.40;28.63;;;;;;;8.76;93.30;96692.44;4923071;29;20451;-72
2021/04/22 04:00:18;;;;;;;50.57;28.23;;;;;;;8.70;93.17;96689.34;4917811;28;20605;-72
2021/04/22 04:02:45;;;;;;;50.53;27.27;;;;;;;8.62;93.31;96686.28;4939592;28;20471;-71
2021/04/22 04:05:13;;;;;;;58.23;28.37;;;;;;;8.64;93.54;96692.25;4942023;28;20480;-72
2021/04/22 04:07:40;;;;;;;51.73;28.17;;;;;;;8.66;93.31;96703.38;4937771;28;20470;-70
2021/04/22 04:10:08;;;;;;;47.03;26.77;;;;;;;8.57;93.45;96699.50;4947973;28;20521;-70
2021/04/22 04:12:35;;;;;;;54.13;27.60;;;;;;;8.30;94.19;96707.06;4941157;28;20873;-72
2021/04/22 04:15:04;;;;;;;49.37;29.83;;;;;;;8.31;94.55;96712.16;4939200;28;20478;-72
2021/04/22 04:17:31;;;;;;;52.17;27.23;;;;;;;8.20;94.97;96713.59;4945923;28;20450;-70
2021/04/22 04:19:58;;;;;;;58.53;29.67;;;;;;;8.30;95.31;96714.84;4938658;28;20480;-71
2021/04/22 04:22:25;;;;;;;55.90;30.23;;;;;;;8.33;95.13;96713.75;4944019;28;20914;-72
2021/04/22 04:24:52;;;;;;;52.67;29.90;;;;;;;8.33;94.61;96716.34;4948184;28;20474;-71
2021/04/22 04:27:19;;;;;;;52.90;31.00;;;;;;;8.41;94.90;96715.97;4941950;28;20800;-71
2021/04/22 04:29:47;;;;;;;69.60;30.83;;;;;;;8.49;94.21;96714.63;4943260;28;20533;-72
2021/04/22 04:32:15;;;;;;;47.77;27.70;;;;;;;8.53;93.56;96723.09;4942977;28;20956;-70
2021/04/22 04:34:42;;;;;;;51.27;27.40;;;;;;;8.51;93.66;96723.19;4943918;28;20561;-71
2021/04/22 04:37:08;;;;;;;50.80;27.60;;;;;;;8.50;93.13;96729.25;4942961;28;20422;-70
2021/04/22 04:39:35;;;;;;;47.37;26.83;;;;;;;8.38;92.76;96720.47;4937012;28;20801;-71
2021/04/22 04:42:04;;;;;;;45.97;26.83;;;;;;;8.46;92.59;96729.50;4929927;28;20957;-71
2021/04/22 04:44:32;;;;;;;47.50;27.33;;;;;;;8.51;92.30;96743.09;4943656;28;20844;-71
2021/04/22 04:46:59;;;;;;;58.83;29.10;;;;;;;8.48;92.50;96735.47;4924037;28;21091;-70
2021/04/22 04:49:28;;;;;;;52.57;26.53;;;;;;;8.47;92.90;96745.00;4947399;28;21063;-69
2021/04/22 04:51:54;;;;;;;58.77;30.13;;;;;;;8.44;93.29;96747.75;4944826;28;20446;-71
2021/04/22 04:54:21;;;;;;;49.40;26.33;;;;;;;8.54;93.30;96753.28;4936340;28;20517;-70
2021/04/22 04:56:48;;;;;;;51.27;28.27;;;;;;;8.57;93.37;96747.97;4944855;28;20501;-70
2021/04/22 04:59:15;;;;;;;49.03;28.40;;;;;;;8.62;92.83;96756.31;4943871;28;20503;-69
2021/04/22 05:01:42;;;;;;;46.97;28.87;;;;;;;8.68;92.65;96763.81;4941538;28;20798;-71
2021/04/22 05:04:10;;;;;;;50.63;27.73;;;;;;;8.62;92.27;96764.97;4944626;28;20458;-71
2021/04/22 05:06:39;;;;;;;46.27;27.23;;;;;;;8.73;92.09;96769.59;4939445;28;20482;-71
2021/04/22 05:09:07;;;;;;;44.70;25.73;;;;;;;8.71;91.72;96761.06;4940011;28;20801;-72
2021/04/22 05:11:34;;;;;;;57.93;27.37;;;;;;;8.72;91.56;96768.75;4943731;28;20438;-69
2021/04/22 05:14:01;;;;;;;48.03;26.43;;;;;;;8.71;91.56;96772.25;4940884;28;20505;-71
2021/04/22 05:16:28;;;;;;;47.70;27.00;;;;;;;8.64;92.59;96778.69;4951077;28;20434;-70
2021/04/22 05:18:55;;;;;;;49.27;27.30;;;;;;;8.63;93.00;96784.81;4917050;28;20493;-70
2021/04/22 05:21:21;;;;;;;49.83;27.60;;;;;;;8.75;93.44;96797.16;4942143;28;20848;-70
2021/04/22 05:23:49;;;;;;;58.53;28.83;;;;;;;8.81;93.00;96802.03;4942018;28;21156;-70
2021/04/22 05:26:19;;;;;;;46.73;27.40;;;;;;;8.92;92.60;96797.09;4942057;28;20931;-71
2021/04/22 05:28:46;;;;;;;47.90;27.50;;;;;;;8.92;92.14;96797.09;4939921;28;20474;-70
2021/04/22 05:31:14;;;;;;;46.23;27.13;;;;;;;8.89;92.07;96797.28;4934502;28;20484;-70
2021/04/22 05:33:41;;;;;;;51.17;25.70;;;;;;;8.99;91.68;96805.44;4941466;28;20466;-73
2021/04/22 05:36:08;;;;;;;51.17;27.30;;;;;;;8.81;92.00;96794.25;4942144;28;20746;-70
2021/04/22 05:38:35;;;;;;;52.33;27.30;;;;;;;8.81;92.10;96804.63;4941350;28;20960;-71
2021/04/22 05:41:03;;;;;;;58.87;27.00;;;;;;;8.84;92.12;96808.78;4945846;28;20435;-70
2021/04/22 05:43:31;;;;;;;51.87;28.47;;;;;;;8.89;91.93;96812.84;4943690;28;20470;-70
2021/04/22 05:45:58;;;;;;;45.83;24.50;;;;;;;8.94;92.34;96805.66;4942038;28;20435;-70
2021/04/22 05:48:25;;;;;;;44.13;26.70;;;;;;;9.14;92.02;96808.03;4939248;28;20920;-70
2021/04/22 05:50:52;;;;;;;52.37;26.13;;;;;;;9.07;91.74;96809.28;4944447;28;21037;-71
2021/04/22 05:53:21;;;;;;;47.97;26.97;;;;;;;9.29;90.83;96817.59;4940694;28;20924;-71
2021/04/22 05:55:48;;;;;;;50.20;27.67;;;;;;;9.33;90.53;96813.94;4939918;28;20967;-74
2021/04/22 05:58:16;;;;;;;49.60;26.10;;;;;;;9.43;90.66;96822.91;4935869;28;21163;-72
2021/04/22 06:00:43;;;;;;;43.30;24.60;;;;;;;9.53;90.78;96821.47;4941681;28;20825;-72
2021/04/22 06:03:11;;;;;;;44.20;25.40;;;;;;;9.69;89.82;96826.69;4935792;28;20474;-71
2021/04/22 06:05:38;;;;;;;39.87;24.70;;;;;;;9.80;89.23;96827.78;4940539;28;20916;-71
2021/04/22 06:08:09;;;;;;;48.33;25.87;;;;;;;9.77;88.75;96833.16;4941931;28;21150;-71
2021/04/22 06:10:38;;;;;;;37.80;22.03;;;;;;;9.80;88.57;96838.19;4946962;28;20528;-71
2021/04/22 06:13:08;;;;;;;48.30;25.20;;;;;;;9.88;88.04;96832.56;4941531;28;20438;-71
2021/04/22 06:15:38;;;;;;;53.97;23.67;;;;;;;9.96;87.21;96836.41;4942945;28;20922;-71
2021/04/22 06:18:06;;;;;;;40.13;21.80;;;;;;;9.99;87.41;96845.78;4943888;28;20828;-72
2021/04/22 06:20:33;;;;;;;36.43;20.20;;;;;;;10.07;86.34;96849.69;4946047;28;20815;-71
2021/04/22 06:23:20;;;;;;;38.53;20.73;;;;;;;10.15;86.22;96854.44;4951096;28;20537;-72
2021/04/22 06:25:47;;;;;;;47.90;20.83;;;;;;;10.13;85.75;96859.75;4952952;28;20921;-72
2021/04/22 06:28:15;;;;;;;47.23;22.80;;;;;;;10.15;85.80;96857.91;4942060;28;21063;-72
2021/04/22 06:30:43;;;;;;;40.93;20.00;;;;;;;10.23;84.80;96850.50;4949333;28;20446;-70
2021/04/22 06:33:10;;;;;;;42.80;21.50;;;;;;;10.38;84.45;96869.63;4947949;28;21056;-71
2021/04/22 06:35:39;;;;;;;39.37;20.37;;;;;;;10.44;84.32;96869.25;4949649;28;20841;-72
2021/04/22 06:38:07;;;;;;;42.97;20.90;;;;;;;10.69;83.32;96870.34;4947285;28;20426;-72
2021/04/22 06:40:34;;;;;;;39.07;19.67;;;;;;;10.77;82.75;96883.75;4938529;28;20513;-72
2021/04/22 06:43:05;;;;;;;30.27;18.23;;;;;;;10.86;82.03;96875.44;4944016;28;21014;-72
2021/04/22 06:45:37;;;;;;;41.00;19.23;;;;;;;10.80;81.45;96883.59;4915270;28;20445;-72
2021/04/22 06:48:06;;;;;;;36.00;17.63;;;;;;;10.81;80.75;96890.47;4960587;28;20469;-70
2021/04/22 06:50:37;;;;;;;28.73;17.87;;;;;;;10.75;81.12;96890.84;4930310;28;20457;-72
2021/04/22 06:53:05;;;;;;;35.80;18.40;;;;;;;10.77;80.86;96894.16;4947938;28;20469;-71
2021/04/22 06:55:32;;;;;;;32.20;17.63;;;;;;;10.84;80.88;96892.88;4944730;28;20769;-72
2021/04/22 06:58:01;;;;;;;33.30;17.80;;;;;;;10.85;80.91;96889.38;4942466;28;20749;-73
2021/04/22 07:00:30;;;;;;;31.97;18.67;;;;;;;10.99;80.50;96897.19;4938069;28;20489;-73
2021/04/22 07:02:57;;;;;;;33.90;16.97;;;;;;;11.14;80.24;96888.50;4941760;28;20967;-73
2021/04/22 07:05:26;;;;;;;32.03;16.50;;;;;;;11.29;79.36;96879.78;4944059;28;20454;-72
2021/04/22 07:07:53;;;;;;;31.10;17.17;;;;;;;11.52;77.58;96904.44;4951970;28;20463;-71
2021/04/22 07:10:20;;;;;;;29.77;16.30;;;;;;;11.27;78.25;96905.06;4926309;28;21211;-72
2021/04/22 07:12:47;;;;;;;27.00;15.03;;;;;;;11.16;78.88;96912.69;4946662;28;20782;-71
2021/04/22 07:15:15;;;;;;;38.83;16.97;;;;;;;11.30;79.39;96917.94;4946502;28;21196;-71
2021/04/22 07:17:49;;;;;;;30.10;15.37;;;;;;;11.33;77.24;96909.91;4939115;28;20780;-71
2021/04/22 07:20:17;;;;;;;33.73;15.53;;;;;;;11.41;77.52;96918.13;4942905;28;20485;-71
2021/04/22 07:22:56;;;;;;;30.07;15.47;;;;;;;11.43;77.20;96921.47;4939295;28;20540;-70
2021/04/22 07:25:25;;;;;;;29.17;15.40;;;;;;;11.51;77.75;96921.00;4943521;28;20477;-73
2021/04/22 07:27:52;;;;;;;31.13;14.50;;;;;;;11.65;76.68;96929.69;4943727;28;20951;-73
2021/04/22 07:30:20;;;;;;;27.07;14.90;;;;;;;11.57;75.61;96924.06;4947823;28;20454;-72
2021/04/22 07:32:48;;;;;;;122.27;57.20;;;;;;;11.46;76.54;96925.66;4940995;28;20513;-72
2021/04/22 07:35:18;;;;;;;54.83;23.60;;;;;;;11.36;77.30;96925.38;4943602;28;20989;-72
2021/04/22 07:37:46;;;;;;;28.70;15.20;;;;;;;11.40;76.68;96933.84;4930117;28;20530;-70
2021/04/22 07:40:17;;;;;;;31.20;15.40;;;;;;;11.29;77.12;96938.84;4942289;28;21032;-71
2021/04/22 07:42:44;;;;;;;26.33;15.10;;;;;;;11.23;76.79;96941.81;4927731;28;20453;-70
2021/04/22 07:45:13;;;;;;;30.10;15.90;;;;;;;11.17;77.19;96943.03;4946318;28;20473;-71
2021/04/22 07:47:42;;;;;;;32.80;14.90;;;;;;;11.04;78.25;96944.66;4937550;28;20846;-71
2021/04/22 07:50:12;;;;;;;27.27;15.77;;;;;;;11.01;78.88;96942.25;4941793;28;20462;-71
2021/04/22 07:52:40;;;;;;;35.20;15.50;;;;;;;10.96;77.03;96940.81;4946514;28;20450;-70
2021/04/22 07:55:09;;;;;;;31.23;16.67;;;;;;;10.79;78.66;96938.34;4939536;28;20499;-71
2021/04/22 07:57:38;;;;;;;41.80;18.10;;;;;;;10.74;79.82;96948.19;4942968;28;20485;-72
2021/04/22 08:00:07;;;;;;;27.77;15.47;;;;;;;10.71;80.01;96950.97;4942188;28;20473;-72
2021/04/22 08:02:38;;;;;;;26.80;15.13;;;;;;;10.71;79.54;96951.84;4937785;28;21000;-73
2021/04/22 08:05:07;;;;;;;37.70;15.60;;;;;;;10.67;80.39;96955.50;4941547;28;20474;-70
2021/04/22 08:07:34;;;;;;;37.23;14.90;;;;;;;10.60;79.79;96956.78;4946064;28;20470;-70
2021/04/22 08:10:01;;;;;;;24.83;12.90;;;;;;;10.72;79.65;96961.31;4941117;28;20922;-71
2021/04/22 08:12:28;;;;;;;25.07;13.20;;;;;;;10.73;79.06;96959.53;4920553;28;20915;-71
2021/04/22 08:14:59;;;;;;;35.20;14.50;;;;;;;10.84;78.95;96959.78;4944389;28;20489;-70
2021/04/22 08:17:27;;;;;;;24.20;11.10;;;;;;;10.93;77.10;96965.31;4945631;28;20537;-72
2021/04/22 08:19:54;;;;;;;22.40;12.60;;;;;;;10.88;77.61;96958.66;4942786;28;20594;-71
2021/04/22 08:22:21;;;;;;;30.30;11.63;;;;;;;11.00;76.44;96960.56;4942689;28;20438;-70
2021/04/22 08:24:48;;;;;;;21.90;11.37;;;;;;;11.06;76.88;96952.41;4942797;28;21004;-71
2021/04/22 08:27:15;;;;;;;21.43;11.40;;;;;;;11.07;76.62;96965.34;4941652;28;20849;-70
2021/04/22 08:29:42;;;;;;;21.40;11.57;;;;;;;11.20;76.43;96962.84;4936963;28;20459;-70
2021/04/22 08:32:10;;;;;;;22.77;10.67;;;;;;;11.24;75.60;96972.16;4937619;28;20922;-71
2021/04/22 08:34:37;;;;;;;30.67;11.90;;;;;;;11.11;75.86;96966.81;4934962;28;20466;-70
2021/04/22 08:37:04;;;;;;;28.70;11.57;;;;;;;11.13;75.08;96957.16;4945519;28;20450;-71
2021/04/22 08:39:31;;;;;;;33.70;13.40;;;;;;;11.43;74.38;96942.31;4947747;28;21042;-70
2021/04/22 08:41:58;;;;;;;25.10;11.30;;;;;;;11.74;73.50;96970.03;4939809;28;20454;-71
2021/04/22 08:44:25;;;;;;;21.40;11.13;;;;;;;12.10;72.37;96970.38;4939598;28;21163;-70
2021/04/22 08:46:54;;;;;;;68.67;34.67;;;;;;;12.28;72.21;96975.31;4944096;28;20448;-71
2021/04/22 08:49:26;;;;;;;153.43;78.03;;;;;;;12.27;70.50;96973.63;4943488;28;20484;-70
2021/04/22 08:51:52;;;;;;;20.87;10.03;;;;;;;12.37;69.64;96973.91;4943724;28;20969;-71
2021/04/22 08:54:19;;;;;;;20.80;10.67;;;;;;;12.58;67.49;96983.81;4942218;28;20473;-70
2021/04/22 08:56:46;;;;;;;27.47;10.20;;;;;;;12.61;67.98;96982.78;4937270;28;20504;-70
2021/04/22 08:59:14;;;;;;;18.03;9.83;;;;;;;12.81;68.57;96972.72;4938526;28;20481;-70
2021/04/22 09:01:44;;;;;;;28.10;9.73;;;;;;;13.02;66.83;96974.81;4937758;28;20478;-70
2021/04/22 09:04:11;;;;;;;39.10;11.60;;;;;;;13.09;66.70;96985.69;4937201;28;20974;-71
2021/04/22 09:06:43;;;;;;;18.33;10.00;;;;;;;13.04;67.13;96988.63;4937510;28;20449;-71
2021/04/22 09:09:10;;;;;;;25.43;10.87;;;;;;;12.65;65.26;96985.09;4936889;28;20451;-72
2021/04/22 09:11:43;;;;;;;17.73;8.87;;;;;;;12.40;66.72;96985.00;4942808;28;20490;-71
2021/04/22 09:14:13;;;;;;;22.27;10.00;;;;;;;12.47;68.33;96980.19;4948013;28;20545;-71
2021/04/22 09:16:43;;;;;;;18.30;10.40;;;;;;;12.83;68.75;96994.38;4937036;28;20842;-71
2021/04/22 09:19:13;;;;;;;27.03;9.73;;;;;;;13.35;65.95;96992.69;4942080;28;20757;-70
2021/04/22 09:21:44;;;;;;;17.80;9.40;;;;;;;13.78;64.99;96997.53;4912602;28;21165;-70
2021/04/22 09:24:14;;;;;;;25.10;9.50;;;;;;;14.21;63.04;96984.94;4949958;28;20505;-71
2021/04/22 09:26:48;;;;;;;21.37;9.53;;;;;;;15.02;61.53;96989.53;4915813;28;20871;-71
2021/04/22 09:29:28;;;;;;;31.27;10.40;;;;;;;15.42;58.04;96998.78;4954723;28;21158;-70
2021/04/22 09:32:06;;;;;;;19.10;9.20;;;;;;;15.75;59.10;97001.50;4945867;28;20996;-71
2021/04/22 09:34:33;;;;;;;33.87;9.43;;;;;;;16.38;57.70;96983.41;4942167;28;21035;-71
2021/04/22 09:37:01;;;;;;;20.27;9.10;;;;;;;16.54;55.29;96986.50;4936619;28;20446;-73
2021/04/22 09:39:31;;;;;;;17.17;8.57;;;;;;;16.86;54.79;96979.53;4936359;28;20829;-70
2021/04/22 09:42:01;;;;;;;18.83;7.67;;;;;;;17.18;54.64;96980.34;4941194;28;20507;-72
2021/04/22 09:44:29;;;;;;;17.23;7.97;;;;;;;17.18;54.30;96983.84;4937440;28;20813;-71
2021/04/22 09:47:09;;;;;;;22.80;8.60;;;;;;;17.33;52.29;96980.75;4944063;28;20441;-70
2021/04/22 09:49:48;;;;;;;21.10;8.33;;;;;;;17.73;51.62;96976.53;4960461;28;20779;-71
2021/04/22 09:52:18;;;;;;;15.20;7.67;;;;;;;17.98;51.25;96981.38;4943435;28;20910;-71
2021/04/22 09:54:47;;;;;;;15.23;7.27;;;;;;;18.08;50.83;96976.16;4936351;28;20474;-69
2021/04/22 09:57:23;;;;;;;28.33;12.17;;;;;;;18.08;51.45;96981.44;4944790;28;20450;-73
2021/04/22 09:59:50;;;;;;;22.80;11.13;;;;;;;18.33;50.01;96976.59;4951084;28;20488;-74
2021/04/22 10:02:17;;;;;;;10.20;6.00;;;;;;;18.21;48.93;96974.97;4953855;28;20963;-73
2021/04/22 10:04:48;;;;;;;12.77;6.27;;;;;;;18.39;48.49;96983.97;4944523;28;20749;-74
2021/04/22 10:07:25;;;;;;;16.83;6.40;;;;;;;18.25;49.11;96978.19;4940186;28;20524;-73
2021/04/22 10:09:53;;;;;;;14.20;7.00;;;;;;;18.33;48.29;96965.19;4942313;28;20457;-74
2021/04/22 10:12:23;;;;;;;11.83;5.57;;;;;;;18.19;46.54;96973.44;4948930;28;20438;-73
2021/04/22 10:14:51;;;;;;;19.13;5.50;;;;;;;18.47;45.87;96978.03;4947351;28;21046;-73
2021/04/22 10:17:19;;;;;;;19.90;6.33;;;;;;;18.43;46.76;96984.53;4939761;28;20430;-74
2021/04/22 10:19:58;;;;;;;23.60;7.10;;;;;;;18.31;46.29;96973.25;4943071;28;20474;-73
2021/04/22 10:22:28;;;;;;;12.60;5.63;;;;;;;18.30;45.39;96984.78;4949620;28;20936;-73
2021/04/22 10:24:56;;;;;;;16.13;5.47;;;;;;;18.60;44.89;96979.47;4941802;28;20470;-72
2021/04/22 10:27:25;;;;;;;13.17;5.30;;;;;;;19.23;46.07;96984.31;4943189;28;20462;-74
2021/04/22 10:29:53;;;;;;;15.13;5.50;;;;;;;19.60;44.42;96984.47;4949628;28;20459;-73
2021/04/22 10:32:21;;;;;;;16.67;7.23;;;;;;;18.88;41.38;96978.69;4946149;28;20830;-74
2021/04/22 10:34:50;;;;;;;14.13;6.20;;;;;;;18.54;44.67;96980.00;4942030;28;20467;-73
2021/04/22 10:37:18;;;;;;;10.27;5.83;;;;;;;18.62;43.83;96974.88;4938849;28;20457;-73
2021/04/22 10:39:47;;;;;;;13.13;4.70;;;;;;;18.82;44.43;96976.63;4948250;28;20525;-73
2021/04/22 10:42:16;;;;;;;13.53;5.90;;;;;;;19.40;44.00;96974.88;4946724;28;20977;-73
2021/04/22 10:44:48;;;;;;;14.10;5.43;;;;;;;18.81;44.22;96967.03;4942636;28;21154;-73
2021/04/22 10:47:17;;;;;;;13.80;5.07;;;;;;;18.83;43.59;96966.88;4937949;28;20481;-73
2021/04/22 10:49:45;;;;;;;14.40;5.20;;;;;;;19.08;45.23;96964.56;4925638;28;21177;-73
2021/04/22 10:52:13;;;;;;;12.77;4.77;;;;;;;19.40;42.84;96969.59;4944694;28;20505;-73
2021/04/22 10:54:42;;;;;;;17.40;5.70;;;;;;;18.61;43.51;96959.19;4943209;28;20961;-73
2021/04/22 10:57:12;;;;;;;18.40;5.40;;;;;;;18.70;44.38;96958.38;4943644;28;20995;-74
2021/04/22 10:59:40;;;;;;;21.80;4.77;;;;;;;19.24;43.40;96959.59;4929023;28;20934;-73
2021/04/22 11:02:23;;;;;;;11.97;4.97;;;;;;;19.40;43.90;96956.41;4944526;28;20474;-73
2021/04/22 11:04:50;;;;;;;13.07;4.40;;;;;;;19.66;42.77;96960.13;4943814;28;20466;-72
2021/04/22 11:07:21;;;;;;;12.90;4.80;;;;;;;19.19;41.17;96956.56;4947675;28;20933;-74
2021/04/22 11:09:50;;;;;;;17.50;5.43;;;;;;;18.50;42.73;96957.50;4957547;28;20881;-73
2021/04/22 11:12:26;;;;;;;12.03;4.20;;;;;;;19.07;42.68;96951.47;4941472;28;20438;-72
2021/04/22 11:14:54;;;;;;;10.10;4.30;;;;;;;19.63;41.98;96966.53;4943224;28;20458;-74
2021/04/22 11:17:35;;;;;;;12.80;3.60;;;;;;;19.89;38.94;96951.72;4942560;28;20848;-73
2021/04/22 11:20:11;;;;;;;11.60;4.13;;;;;;;20.05;40.03;96941.41;4939049;28;20493;-73
2021/04/22 11:22:39;;;;;;;10.00;4.90;;;;;;;20.14;38.99;96951.16;4918549;28;21131;-73
2021/04/22 11:25:09;;;;;;;12.33;3.93;;;;;;;19.57;38.60;96951.25;4942347;28;20462;-73
2021/04/22 11:27:48;;;;;;;13.87;3.87;;;;;;;20.35;37.74;96943.81;4944683;28;20493;-73